Scholes International At Galveston Airport
KGLS : now visible

Airfield :











YOU CAN JOIN US ON...

 
LOGIN :

Register | Disclaimer

   EN    FR    IT 

 









Legend :    VFR   Marginal VFR   IFR   Intensive IFR   Very Intensive IFR
Visi :
Ceiling :
>= 8 km
>= 3000ft
5 to 8 km
1000 to 3000 ft
1500m to 5 km
500 to 1000 ft
800 to 1500m
200 to 500 ft
< 800m
< 200 ft
Symbols :   Thunderstorms  Fog  Heavy snow  Heavy precipitations  Wind > 20 kt







- Airport Elevation : 6 ft
- IATA code : GLS


KGLS - Scholes International At Galveston

CURRENT METAR :
  • 212052Z 10007KT 10SM FEW026 FEW036 SCT047 31/24 A3003 RMK AO2 SLP168 60001 T03060244 58017

EXPIRED METARs :
  • 211952Z 10010KT 10SM SCT028 SCT039 31/24 A3005 RMK AO2 RAE04 SLP176 P0000 T03110244
  • 211852Z 12011KT 5SM -RA SCT027 SCT037 30/25 A3007 RMK AO2 RAB51 SLP181 P0001 T03000250

TAF KGLS
Valid from the 21 at 18:00 until the 22 at 18:00 UTC


211720Z 2118/2218 12012KT P6SM SCT025
FM220600 13014KT P6SM BKN100
FM221500 14011KT P6SM BKN050
No reported NOTAMs for that airfield.



MET'MAP, your aeronautical weather chart ! - Copyright ORBIFLY December 2007 - Disclaimer

ORBIFLY MET'MAP TEAM :

Programming & Development : Alexandra Zaïnal
Concept & Development : Baudouin d'Aumeries
Co-Development & Prog : Marc-Olivier Méhu
Technical & hardware support : Manuel Goepfert

Contact : metmap@orbifly.com




SOURCES & CREDITS :

   NOAA       Earth
Advisory